YBHM Airport Information

Runway Information
Runway 14 Length 5591 ft width 148 ft
Elevation 15 ft Threshold 196 ft Heading 143
Runway 32 Length 5591 ft Width 148 ft
Elevation 15 ft Threshold 196 ft Heading 323
Airport Frequencies
Type ATIS Name ATIS Frequency 114.4 MHZ
Type CTAF Name CTAF Frequency 126.7 MHZ
Type FSS Name BRISBANE C Frequency 135.5 MHZ
Type TWR Name TWR Frequency 118.7 MHZ
Airport Navaids
Type VOR-DME Name Hamilton Island Frequency 114400 KHZ
Type NDB Name Hamilton Island Frequency 383 KHZ
Airport Weather Information & NOTAM
ADDS - METARS form results

(2059 UTC 30 September 2022)
Data provider http://aviationweather.gov/metar/data/
 
METAR text: YBHM 302030Z AUTO 17009KT 9999 // NCD 21/17 Q1015 RF00.0/000.0
Conditions at: YBHM (HAMILTON ISLAND , AU) observed 2030 UTC 30 September 2022
Temperature: 21.0°C (70°F)
Dewpoint: 17.0°C (63°F) [RH = 78%]
Pressure (altimeter): 29.97 inches Hg (1015.0 mb)
Winds: from the S (170 degrees) at 10 MPH (9 knots; 4.6 m/s)
Visibility: 6 or more miles (10+ km)
Ceiling: at least 12,000 feet AGL
Clouds: sky clear below 12,000 feet AGL
Weather: no significant weather observed at this time

METAR text: YBHM 302000Z AUTO 15009KT 9999 // NCD 21/17 Q1014 RF00.0/000.0
Conditions at: YBHM (HAMILTON ISLAND , AU) observed 2000 UTC 30 September 2022
Temperature: 21.0°C (70°F)
Dewpoint: 17.0°C (63°F) [RH = 78%]
Pressure (altimeter): 29.94 inches Hg (1014.0 mb)
Winds: from the SSE (150 degrees) at 10 MPH (9 knots; 4.6 m/s)
Visibility: 6 or more miles (10+ km)
Ceiling: at least 12,000 feet AGL
Clouds: sky clear below 12,000 feet AGL
Weather: no significant weather observed at this time

Forecast for: YBHM (HAMILTON ISLAND , AU)
Text: TAF YBHM 301650Z 3018/0106 11013KT 9999 SCT030
Forecast period: 1800 UTC 30 September 2022 to 0600 UTC 01 October 2022
Forecast type: FROM: standard forecast or significant change
Winds: from the ESE (110 degrees) at 15 MPH (13 knots; 6.7 m/s)
Visibility: 6 or more miles (10+ km)
Ceiling: at least 12,000 feet AGL
Clouds: scattered clouds at 3000 feet AGL
Weather: no significant weather forecast for this period